sensor_id;sensor_type;location;lat;lon;timestamp;pressure;altitude;pressure_sealevel;temperature;humidity
9764;BME280;4921;43.214;27.936;2022-09-29T00:01:14;100094.19;;;19.22;100.00
9764;BME280;4921;43.214;27.936;2022-09-29T00:03:41;100092.78;;;19.26;100.00
9764;BME280;4921;43.214;27.936;2022-09-29T00:06:13;100095.28;;;19.28;100.00
9764;BME280;4921;43.214;27.936;2022-09-29T00:08:42;100082.50;;;19.23;100.00
9764;BME280;4921;43.214;27.936;2022-09-29T00:11:10;100079.44;;;19.26;100.00
9764;BME280;4921;43.214;27.936;2022-09-29T00:13:38;100064.28;;;19.27;100.00
9764;BME280;4921;43.214;27.936;2022-09-29T00:16:05;100069.81;;;19.25;100.00
9764;BME280;4921;43.214;27.936;2022-09-29T00:18:33;100069.81;;;19.25;100.00
9764;BME280;4921;43.214;27.936;2022-09-29T00:21:03;100067.72;;;19.21;100.00
9764;BME280;4921;43.214;27.936;2022-09-29T00:23:31;100067.50;;;19.22;100.00
9764;BME280;4921;43.214;27.936;2022-09-29T00:26:02;100063.59;;;19.18;100.00
9764;BME280;4921;43.214;27.936;2022-09-29T00:28:30;100070.50;;;19.13;100.00
9764;BME280;4921;43.214;27.936;2022-09-29T00:30:58;100067.84;;;19.13;100.00
9764;BME280;4921;43.214;27.936;2022-09-29T00:33:27;100066.81;;;19.14;100.00
9764;BME280;4921;43.214;27.936;2022-09-29T00:35:59;100069.88;;;19.11;100.00
9764;BME280;4921;43.214;27.936;2022-09-29T00:38:27;100071.66;;;19.03;100.00
9764;BME280;4921;43.214;27.936;2022-09-29T00:40:55;100073.22;;;18.98;100.00
9764;BME280;4921;43.214;27.936;2022-09-29T00:43:44;100077.91;;;18.96;100.00
9764;BME280;4921;43.214;27.936;2022-09-29T00:46:11;100075.06;;;18.97;100.00
9764;BME280;4921;43.214;27.936;2022-09-29T00:48:40;100067.00;;;18.91;100.00
9764;BME280;4921;43.214;27.936;2022-09-29T00:51:07;100070.47;;;18.91;100.00
9764;BME280;4921;43.214;27.936;2022-09-29T00:53:34;100071.31;;;18.92;100.00
9764;BME280;4921;43.214;27.936;2022-09-29T00:56:03;100074.44;;;18.95;100.00
9764;BME280;4921;43.214;27.936;2022-09-29T00:58:34;100069.13;;;18.95;100.00
9764;BME280;4921;43.214;27.936;2022-09-29T01:01:04;100070.69;;;18.90;100.00
9764;BME280;4921;43.214;27.936;2022-09-29T01:03:34;100074.19;;;18.90;100.00
9764;BME280;4921;43.214;27.936;2022-09-29T01:06:06;100082.53;;;18.87;100.00
9764;BME280;4921;43.214;27.936;2022-09-29T01:08:39;100080.50;;;18.89;100.00
9764;BME280;4921;43.214;27.936;2022-09-29T01:11:09;100097.88;;;18.85;100.00
9764;BME280;4921;43.214;27.936;2022-09-29T01:13:38;100094.38;;;18.85;100.00
9764;BME280;4921;43.214;27.936;2022-09-29T01:16:07;100107.72;;;18.85;100.00
9764;BME280;4921;43.214;27.936;2022-09-29T01:18:34;100099.00;;;18.91;100.00
9764;BME280;4921;43.214;27.936;2022-09-29T01:21:10;100095.22;;;18.85;100.00
9764;BME280;4921;43.214;27.936;2022-09-29T01:23:50;100094.22;;;18.86;100.00
9764;BME280;4921;43.214;27.936;2022-09-29T01:29:51;100094.47;;;18.91;100.00
9764;BME280;4921;43.214;27.936;2022-09-29T01:32:28;100101.91;;;18.96;100.00
9764;BME280;4921;43.214;27.936;2022-09-29T01:35:14;100094.28;;;18.93;100.00
9764;BME280;4921;43.214;27.936;2022-09-29T01:37:53;100088.78;;;18.94;100.00
9764;BME280;4921;43.214;27.936;2022-09-29T01:40:28;100088.41;;;18.97;100.00
9764;BME280;4921;43.214;27.936;2022-09-29T01:43:03;100095.00;;;19.01;100.00
9764;BME280;4921;43.214;27.936;2022-09-29T01:45:34;100097.47;;;19.03;100.00
9764;BME280;4921;43.214;27.936;2022-09-29T01:48:06;100102.94;;;19.16;100.00
9764;BME280;4921;43.214;27.936;2022-09-29T01:50:38;100092.53;;;19.21;100.00
9764;BME280;4921;43.214;27.936;2022-09-29T01:53:10;100093.41;;;19.28;100.00
9764;BME280;4921;43.214;27.936;2022-09-29T01:55:42;100087.28;;;19.28;100.00
9764;BME280;4921;43.214;27.936;2022-09-29T01:58:14;100092.84;;;19.33;100.00
9764;BME280;4921;43.214;27.936;2022-09-29T02:00:47;100089.84;;;19.36;100.00
9764;BME280;4921;43.214;27.936;2022-09-29T02:03:20;100098.09;;;19.41;100.00
9764;BME280;4921;43.214;27.936;2022-09-29T02:05:53;100099.72;;;19.42;100.00
9764;BME280;4921;43.214;27.936;2022-09-29T02:08:25;100098.31;;;19.46;100.00
9764;BME280;4921;43.214;27.936;2022-09-29T02:11:01;100095.91;;;19.51;100.00
9764;BME280;4921;43.214;27.936;2022-09-29T02:13:31;100088.13;;;19.49;100.00
9764;BME280;4921;43.214;27.936;2022-09-29T02:16:01;100087.84;;;19.44;100.00
9764;BME280;4921;43.214;27.936;2022-09-29T02:18:36;100093.19;;;19.44;100.00
9764;BME280;4921;43.214;27.936;2022-09-29T02:21:08;100096.28;;;19.48;100.00
9764;BME280;4921;43.214;27.936;2022-09-29T02:23:35;100092.16;;;19.45;100.00
9764;BME280;4921;43.214;27.936;2022-09-29T02:26:03;100093.63;;;19.48;100.00
9764;BME280;4921;43.214;27.936;2022-09-29T02:28:29;100079.59;;;19.39;100.00
9764;BME280;4921;43.214;27.936;2022-09-29T02:30:56;100081.00;;;19.35;100.00
9764;BME280;4921;43.214;27.936;2022-09-29T02:33:24;100091.66;;;19.35;100.00
9764;BME280;4921;43.214;27.936;2022-09-29T02:35:59;100089.34;;;19.32;100.00
9764;BME280;4921;43.214;27.936;2022-09-29T02:38:41;100086.34;;;19.35;100.00
9764;BME280;4921;43.214;27.936;2022-09-29T02:41:18;100097.25;;;19.40;100.00
9764;BME280;4921;43.214;27.936;2022-09-29T02:44:09;100095.59;;;19.39;100.00
9764;BME280;4921;43.214;27.936;2022-09-29T02:46:51;100085.50;;;19.35;100.00
9764;BME280;4921;43.214;27.936;2022-09-29T02:49:33;100092.84;;;19.33;100.00
9764;BME280;4921;43.214;27.936;2022-09-29T02:52:14;100090.38;;;19.31;100.00
9764;BME280;4921;43.214;27.936;2022-09-29T02:54:51;100078.81;;;19.24;100.00
9764;BME280;4921;43.214;27.936;2022-09-29T02:57:26;100084.78;;;19.26;100.00
9764;BME280;4921;43.214;27.936;2022-09-29T03:00:00;100085.41;;;19.28;100.00
9764;BME280;4921;43.214;27.936;2022-09-29T03:02:32;100080.84;;;19.22;100.00
9764;BME280;4921;43.214;27.936;2022-09-29T03:05:00;100093.53;;;19.20;100.00
9764;BME280;4921;43.214;27.936;2022-09-29T03:07:29;100085.13;;;19.17;100.00
9764;BME280;4921;43.214;27.936;2022-09-29T03:09:56;100093.47;;;19.14;100.00
9764;BME280;4921;43.214;27.936;2022-09-29T03:12:23;100090.19;;;19.12;100.00
9764;BME280;4921;43.214;27.936;2022-09-29T03:14:49;100093.97;;;19.02;100.00
9764;BME280;4921;43.214;27.936;2022-09-29T03:17:16;100095.63;;;19.03;100.00
9764;BME280;4921;43.214;27.936;2022-09-29T03:19:43;100086.25;;;19.08;100.00
9764;BME280;4921;43.214;27.936;2022-09-29T03:22:10;100091.56;;;19.08;100.00
9764;BME280;4921;43.214;27.936;2022-09-29T03:24:39;100091.56;;;19.08;100.00
9764;BME280;4921;43.214;27.936;2022-09-29T03:27:06;100092.91;;;18.97;100.00
9764;BME280;4921;43.214;27.936;2022-09-29T03:29:34;100085.75;;;18.97;100.00
9764;BME280;4921;43.214;27.936;2022-09-29T03:32:01;100087.16;;;19.00;100.00
9764;BME280;4921;43.214;27.936;2022-09-29T03:34:29;100098.59;;;18.94;100.00
9764;BME280;4921;43.214;27.936;2022-09-29T03:36:56;100101.66;;;18.91;100.00
9764;BME280;4921;43.214;27.936;2022-09-29T03:39:23;100085.28;;;18.94;100.00
9764;BME280;4921;43.214;27.936;2022-09-29T03:41:52;100096.13;;;18.92;100.00
9764;BME280;4921;43.214;27.936;2022-09-29T03:44:18;100093.19;;;18.87;100.00
9764;BME280;4921;43.214;27.936;2022-09-29T03:46:45;100101.19;;;18.87;100.00
9764;BME280;4921;43.214;27.936;2022-09-29T03:49:13;100096.56;;;18.96;100.00
9764;BME280;4921;43.214;27.936;2022-09-29T03:51:40;100100.81;;;18.90;100.00
9764;BME280;4921;43.214;27.936;2022-09-29T03:54:08;100101.81;;;18.89;100.00
9764;BME280;4921;43.214;27.936;2022-09-29T03:56:36;100099.72;;;18.85;100.00
9764;BME280;4921;43.214;27.936;2022-09-29T03:59:04;100096.41;;;18.83;100.00
9764;BME280;4921;43.214;27.936;2022-09-29T04:01:33;100096.41;;;18.83;100.00
9764;BME280;4921;43.214;27.936;2022-09-29T04:07:24;100088.75;;;18.73;100.00
9764;BME280;4921;43.214;27.936;2022-09-29T04:13:12;100084.63;;;18.56;100.00
9764;BME280;4921;43.214;27.936;2022-09-29T04:15:41;100099.22;;;18.60;100.00
9764;BME280;4921;43.214;27.936;2022-09-29T04:18:08;100102.19;;;18.65;100.00
9764;BME280;4921;43.214;27.936;2022-09-29T04:20:36;100098.69;;;18.65;100.00
9764;BME280;4921;43.214;27.936;2022-09-29T04:26:25;100095.00;;;18.66;100.00
9764;BME280;4921;43.214;27.936;2022-09-29T04:28:52;100098.59;;;18.58;100.00
9764;BME280;4921;43.214;27.936;2022-09-29T04:31:20;100103.63;;;18.53;100.00
9764;BME280;4921;43.214;27.936;2022-09-29T04:33:47;100097.31;;;18.54;100.00
9764;BME280;4921;43.214;27.936;2022-09-29T04:36:14;100094.25;;;18.57;100.00
9764;BME280;4921;43.214;27.936;2022-09-29T04:38:40;100095.94;;;18.58;100.00
9764;BME280;4921;43.214;27.936;2022-09-29T04:41:07;100096.56;;;18.60;100.00
9764;BME280;4921;43.214;27.936;2022-09-29T04:43:34;100099.50;;;18.65;100.00
9764;BME280;4921;43.214;27.936;2022-09-29T04:46:05;100094.00;;;18.67;100.00
9764;BME280;4921;43.214;27.936;2022-09-29T04:48:34;100102.34;;;18.64;100.00
9764;BME280;4921;43.214;27.936;2022-09-29T04:51:02;100104.44;;;18.68;100.00
9764;BME280;4921;43.214;27.936;2022-09-29T04:53:29;100114.53;;;18.73;100.00
9764;BME280;4921;43.214;27.936;2022-09-29T04:55:56;100115.63;;;18.78;100.00
9764;BME280;4921;43.214;27.936;2022-09-29T04:58:23;100121.22;;;18.83;100.00
9764;BME280;4921;43.214;27.936;2022-09-29T05:00:50;100124.53;;;18.85;100.00
9764;BME280;4921;43.214;27.936;2022-09-29T05:03:17;100123.34;;;18.88;100.00
9764;BME280;4921;43.214;27.936;2022-09-29T05:05:46;100118.44;;;18.91;100.00
9764;BME280;4921;43.214;27.936;2022-09-29T05:08:12;100127.53;;;18.97;100.00
9764;BME280;4921;43.214;27.936;2022-09-29T05:10:39;100125.50;;;18.99;100.00
9764;BME280;4921;43.214;27.936;2022-09-29T05:13:07;100128.44;;;19.04;100.00
9764;BME280;4921;43.214;27.936;2022-09-29T05:15:34;100125.03;;;19.10;100.00
9764;BME280;4921;43.214;27.936;2022-09-29T05:18:02;100133.25;;;19.15;100.00
9764;BME280;4921;43.214;27.936;2022-09-29T05:20:30;100131.22;;;19.17;100.00
9764;BME280;4921;43.214;27.936;2022-09-29T05:22:58;100135.63;;;19.25;100.00
9764;BME280;4921;43.214;27.936;2022-09-29T05:25:26;100123.66;;;19.35;100.00
9764;BME280;4921;43.214;27.936;2022-09-29T05:27:53;100126.19;;;19.43;100.00
9764;BME280;4921;43.214;27.936;2022-09-29T05:30:20;100124.44;;;19.50;100.00
9764;BME280;4921;43.214;27.936;2022-09-29T05:32:47;100134.59;;;19.61;100.00
9764;BME280;4921;43.214;27.936;2022-09-29T05:35:14;100148.63;;;19.70;100.00
9764;BME280;4921;43.214;27.936;2022-09-29T05:37:41;100149.94;;;19.81;100.00
9764;BME280;4921;43.214;27.936;2022-09-29T05:40:09;100144.03;;;19.85;100.00
9764;BME280;4921;43.214;27.936;2022-09-29T05:42:36;100157.69;;;19.97;100.00
9764;BME280;4921;43.214;27.936;2022-09-29T05:45:05;100148.88;;;20.03;100.00
9764;BME280;4921;43.214;27.936;2022-09-29T05:47:33;100153.88;;;20.12;100.00
9764;BME280;4921;43.214;27.936;2022-09-29T05:50:01;100146.72;;;20.19;100.00
9764;BME280;4921;43.214;27.936;2022-09-29T05:52:28;100143.75;;;20.29;100.00
9764;BME280;4921;43.214;27.936;2022-09-29T05:54:55;100143.59;;;20.37;100.00
9764;BME280;4921;43.214;27.936;2022-09-29T05:57:24;100145.09;;;20.46;100.00
9764;BME280;4921;43.214;27.936;2022-09-29T05:59:50;100131.94;;;20.51;100.00
9764;BME280;4921;43.214;27.936;2022-09-29T06:02:17;100139.63;;;20.61;100.00
9764;BME280;4921;43.214;27.936;2022-09-29T06:04:44;100125.25;;;20.68;100.00
9764;BME280;4921;43.214;27.936;2022-09-29T06:07:11;100128.78;;;20.75;100.00
9764;BME280;4921;43.214;27.936;2022-09-29T06:09:38;100128.41;;;20.85;100.00
9764;BME280;4921;43.214;27.936;2022-09-29T06:12:05;100128.44;;;20.91;100.00
9764;BME280;4921;43.214;27.936;2022-09-29T06:14:33;100134.44;;;21.00;100.00
9764;BME280;4921;43.214;27.936;2022-09-29T06:17:00;100141.47;;;21.07;100.00
9764;BME280;4921;43.214;27.936;2022-09-29T06:19:27;100133.66;;;21.12;100.00
9764;BME280;4921;43.214;27.936;2022-09-29T06:21:54;100144.81;;;21.22;100.00
9764;BME280;4921;43.214;27.936;2022-09-29T06:24:21;100150.16;;;21.29;100.00
9764;BME280;4921;43.214;27.936;2022-09-29T06:26:48;100152.03;;;21.35;100.00
9764;BME280;4921;43.214;27.936;2022-09-29T06:29:14;100148.75;;;21.40;100.00
9764;BME280;4921;43.214;27.936;2022-09-29T06:31:43;100141.34;;;21.48;100.00
9764;BME280;4921;43.214;27.936;2022-09-29T06:34:10;100135.00;;;21.56;100.00
9764;BME280;4921;43.214;27.936;2022-09-29T06:36:39;100143.25;;;21.61;100.00
9764;BME280;4921;43.214;27.936;2022-09-29T06:39:25;100158.25;;;21.68;100.00
9764;BME280;4921;43.214;27.936;2022-09-29T06:41:52;100147.78;;;21.73;100.00
9764;BME280;4921;43.214;27.936;2022-09-29T06:44:20;100155.97;;;21.72;100.00
9764;BME280;4921;43.214;27.936;2022-09-29T06:46:50;100159.28;;;21.61;100.00
9764;BME280;4921;43.214;27.936;2022-09-29T06:49:17;100158.66;;;21.78;100.00
9764;BME280;4921;43.214;27.936;2022-09-29T06:51:44;100157.06;;;21.90;100.00
9764;BME280;4921;43.214;27.936;2022-09-29T06:54:12;100164.47;;;22.02;100.00
9764;BME280;4921;43.214;27.936;2022-09-29T06:56:39;100164.25;;;22.10;100.00
9764;BME280;4921;43.214;27.936;2022-09-29T06:59:06;100158.69;;;22.18;100.00
9764;BME280;4921;43.214;27.936;2022-09-29T07:01:33;100157.47;;;22.07;100.00
9764;BME280;4921;43.214;27.936;2022-09-29T07:04:02;100161.81;;;22.08;100.00
9764;BME280;4921;43.214;27.936;2022-09-29T07:06:29;100162.59;;;22.22;100.00
9764;BME280;4921;43.214;27.936;2022-09-29T07:08:57;100163.63;;;22.34;100.00
9764;BME280;4921;43.214;27.936;2022-09-29T07:11:26;100148.53;;;22.39;100.00
9764;BME280;4921;43.214;27.936;2022-09-29T07:13:53;100159.47;;;22.44;100.00
9764;BME280;4921;43.214;27.936;2022-09-29T07:16:20;100156.56;;;22.46;100.00
9764;BME280;4921;43.214;27.936;2022-09-29T07:18:48;100170.84;;;22.27;100.00
9764;BME280;4921;43.214;27.936;2022-09-29T07:21:17;100174.97;;;22.10;100.00
9764;BME280;4921;43.214;27.936;2022-09-29T07:23:46;100175.56;;;22.31;100.00
9764;BME280;4921;43.214;27.936;2022-09-29T07:26:15;100174.16;;;22.09;100.00
9764;BME280;4921;43.214;27.936;2022-09-29T07:28:42;100181.16;;;22.23;100.00
9764;BME280;4921;43.214;27.936;2022-09-29T07:31:10;100187.53;;;22.22;100.00
9764;BME280;4921;43.214;27.936;2022-09-29T07:33:38;100177.22;;;22.13;100.00
9764;BME280;4921;43.214;27.936;2022-09-29T07:36:05;100144.47;;;21.97;100.00
9764;BME280;4921;43.214;27.936;2022-09-29T07:38:33;100182.41;;;22.01;100.00
9764;BME280;4921;43.214;27.936;2022-09-29T07:41:01;100178.69;;;22.02;100.00
9764;BME280;4921;43.214;27.936;2022-09-29T07:43:29;100178.28;;;22.12;100.00
9764;BME280;4921;43.214;27.936;2022-09-29T07:45:56;100186.72;;;22.02;100.00
9764;BME280;4921;43.214;27.936;2022-09-29T07:48:25;100185.91;;;22.08;100.00
9764;BME280;4921;43.214;27.936;2022-09-29T07:50:52;100185.28;;;21.86;100.00
9764;BME280;4921;43.214;27.936;2022-09-29T07:53:19;100207.63;;;21.53;100.00
9764;BME280;4921;43.214;27.936;2022-09-29T07:55:47;100206.81;;;21.46;100.00
9764;BME280;4921;43.214;27.936;2022-09-29T07:58:14;100205.13;;;21.32;100.00
9764;BME280;4921;43.214;27.936;2022-09-29T08:00:41;100191.97;;;21.37;100.00
9764;BME280;4921;43.214;27.936;2022-09-29T08:03:09;100190.75;;;21.52;100.00
9764;BME280;4921;43.214;27.936;2022-09-29T08:05:36;100195.50;;;21.70;100.00
9764;BME280;4921;43.214;27.936;2022-09-29T08:08:03;100185.66;;;21.77;100.00
9764;BME280;4921;43.214;27.936;2022-09-29T08:10:32;100179.50;;;21.83;100.00
9764;BME280;4921;43.214;27.936;2022-09-29T08:13:01;100188.97;;;21.92;100.00
9764;BME280;4921;43.214;27.936;2022-09-29T08:15:28;100192.06;;;21.95;100.00
9764;BME280;4921;43.214;27.936;2022-09-29T08:17:55;100184.84;;;21.96;100.00
9764;BME280;4921;43.214;27.936;2022-09-29T08:20:22;100187.31;;;22.04;100.00
9764;BME280;4921;43.214;27.936;2022-09-29T08:22:51;100189.38;;;22.09;100.00
9764;BME280;4921;43.214;27.936;2022-09-29T08:25:20;100186.91;;;22.20;100.00
9764;BME280;4921;43.214;27.936;2022-09-29T08:27:47;100189.19;;;22.30;100.00
9764;BME280;4921;43.214;27.936;2022-09-29T08:30:15;100190.41;;;22.34;100.00
9764;BME280;4921;43.214;27.936;2022-09-29T08:32:42;100189.97;;;22.37;100.00
9764;BME280;4921;43.214;27.936;2022-09-29T08:35:10;100182.41;;;22.14;100.00
9764;BME280;4921;43.214;27.936;2022-09-29T08:37:37;100189.78;;;22.38;100.00
9764;BME280;4921;43.214;27.936;2022-09-29T08:40:05;100186.66;;;22.48;100.00
9764;BME280;4921;43.214;27.936;2022-09-29T08:42:42;100188.50;;;22.60;100.00
9764;BME280;4921;43.214;27.936;2022-09-29T08:45:17;100186.25;;;22.70;100.00
9764;BME280;4921;43.214;27.936;2022-09-29T08:47:49;100180.03;;;22.77;100.00
9764;BME280;4921;43.214;27.936;2022-09-29T08:50:23;100185.75;;;22.87;100.00
9764;BME280;4921;43.214;27.936;2022-09-29T08:52:55;100193.63;;;22.82;100.00
9764;BME280;4921;43.214;27.936;2022-09-29T08:55:30;100182.63;;;22.96;100.00
9764;BME280;4921;43.214;27.936;2022-09-29T08:58:00;100181.13;;;23.13;100.00
9764;BME280;4921;43.214;27.936;2022-09-29T09:00:34;100180.22;;;23.26;100.00
9764;BME280;4921;43.214;27.936;2022-09-29T09:03:17;100191.09;;;23.44;100.00
9764;BME280;4921;43.214;27.936;2022-09-29T09:06:07;100179.53;;;23.43;100.00
9764;BME280;4921;43.214;27.936;2022-09-29T09:08:51;100183.50;;;23.34;100.00
9764;BME280;4921;43.214;27.936;2022-09-29T09:11:33;100197.94;;;23.33;100.00
9764;BME280;4921;43.214;27.936;2022-09-29T09:14:17;100190.72;;;23.34;100.00
9764;BME280;4921;43.214;27.936;2022-09-29T09:16:54;100187.63;;;23.37;100.00
9764;BME280;4921;43.214;27.936;2022-09-29T09:19:35;100188.88;;;23.28;100.00
9764;BME280;4921;43.214;27.936;2022-09-29T09:22:19;100194.91;;;23.17;100.00
9764;BME280;4921;43.214;27.936;2022-09-29T09:24:48;100182.91;;;23.26;100.00
9764;BME280;4921;43.214;27.936;2022-09-29T09:27:22;100181.22;;;23.31;100.00
9764;BME280;4921;43.214;27.936;2022-09-29T09:29:59;100178.06;;;23.47;100.00
9764;BME280;4921;43.214;27.936;2022-09-29T09:32:29;100180.22;;;23.64;100.00
9764;BME280;4921;43.214;27.936;2022-09-29T09:34:59;100181.53;;;23.55;100.00
9764;BME280;4921;43.214;27.936;2022-09-29T09:37:33;100184.25;;;23.48;100.00
9764;BME280;4921;43.214;27.936;2022-09-29T09:40:04;100184.50;;;23.40;100.00
9764;BME280;4921;43.214;27.936;2022-09-29T09:42:38;100181.00;;;23.39;100.00
9764;BME280;4921;43.214;27.936;2022-09-29T09:45:11;100185.56;;;23.39;100.00
9764;BME280;4921;43.214;27.936;2022-09-29T09:47:45;100184.13;;;23.30;100.00
9764;BME280;4921;43.214;27.936;2022-09-29T09:50:16;100184.72;;;23.38;100.00
9764;BME280;4921;43.214;27.936;2022-09-29T09:52:47;100193.47;;;23.59;100.00
9764;BME280;4921;43.214;27.936;2022-09-29T09:55:18;100196.13;;;23.65;100.00
9764;BME280;4921;43.214;27.936;2022-09-29T09:57:54;100203.78;;;23.62;100.00
9764;BME280;4921;43.214;27.936;2022-09-29T10:00:29;100209.72;;;23.70;100.00
9764;BME280;4921;43.214;27.936;2022-09-29T10:03:02;100212.25;;;23.65;100.00
9764;BME280;4921;43.214;27.936;2022-09-29T10:05:33;100204.56;;;23.69;100.00
9764;BME280;4921;43.214;27.936;2022-09-29T10:08:02;100203.38;;;23.58;100.00
9764;BME280;4921;43.214;27.936;2022-09-29T10:10:30;100209.66;;;23.77;100.00
9764;BME280;4921;43.214;27.936;2022-09-29T10:13:01;100206.38;;;23.75;100.00
9764;BME280;4921;43.214;27.936;2022-09-29T10:15:32;100208.41;;;23.48;100.00
9764;BME280;4921;43.214;27.936;2022-09-29T10:18:04;100221.69;;;23.30;100.00
9764;BME280;4921;43.214;27.936;2022-09-29T10:20:34;100214.63;;;23.42;100.00
9764;BME280;4921;43.214;27.936;2022-09-29T10:23:27;100221.19;;;23.53;100.00
9764;BME280;4921;43.214;27.936;2022-09-29T10:25:58;100213.63;;;23.36;100.00
9764;BME280;4921;43.214;27.936;2022-09-29T10:28:35;100221.69;;;23.30;100.00
9764;BME280;4921;43.214;27.936;2022-09-29T10:31:15;100209.13;;;23.24;100.00
9764;BME280;4921;43.214;27.936;2022-09-29T10:33:48;100211.22;;;23.22;100.00
9764;BME280;4921;43.214;27.936;2022-09-29T10:36:17;100202.97;;;23.17;100.00
9764;BME280;4921;43.214;27.936;2022-09-29T10:38:47;100209.78;;;23.13;100.00
9764;BME280;4921;43.214;27.936;2022-09-29T10:41:15;100204.22;;;23.14;100.00
9764;BME280;4921;43.214;27.936;2022-09-29T10:43:45;100213.06;;;22.64;100.00
9764;BME280;4921;43.214;27.936;2022-09-29T10:46:37;100205.03;;;22.51;100.00
9764;BME280;4921;43.214;27.936;2022-09-29T10:49:15;100203.38;;;22.37;100.00
9764;BME280;4921;43.214;27.936;2022-09-29T10:51:51;100195.75;;;22.53;100.00
9764;BME280;4921;43.214;27.936;2022-09-29T10:54:20;100199.03;;;22.55;100.00
9764;BME280;4921;43.214;27.936;2022-09-29T10:56:52;100206.25;;;22.55;100.00
9764;BME280;4921;43.214;27.936;2022-09-29T10:59:21;100191.78;;;22.75;100.00
9764;BME280;4921;43.214;27.936;2022-09-29T11:01:50;100192.56;;;22.89;100.00
9764;BME280;4921;43.214;27.936;2022-09-29T11:04:21;100194.00;;;22.92;100.00
9764;BME280;4921;43.214;27.936;2022-09-29T11:06:50;100191.59;;;22.77;100.00
9764;BME280;4921;43.214;27.936;2022-09-29T11:09:29;100189.91;;;22.83;100.00
9764;BME280;4921;43.214;27.936;2022-09-29T11:11:57;100189.03;;;22.95;100.00
9764;BME280;4921;43.214;27.936;2022-09-29T11:14:28;100193.72;;;23.06;100.00
9764;BME280;4921;43.214;27.936;2022-09-29T11:16:56;100187.16;;;23.02;100.00
9764;BME280;4921;43.214;27.936;2022-09-29T11:19:25;100175.31;;;23.16;100.00
9764;BME280;4921;43.214;27.936;2022-09-29T11:22:24;100182.78;;;23.08;100.00
9764;BME280;4921;43.214;27.936;2022-09-29T11:25:05;100176.16;;;23.10;100.00
9764;BME280;4921;43.214;27.936;2022-09-29T11:27:50;100169.38;;;23.01;100.00
9764;BME280;4921;43.214;27.936;2022-09-29T11:30:20;100171.06;;;23.02;100.00
9764;BME280;4921;43.214;27.936;2022-09-29T11:33:06;100176.69;;;22.88;100.00
9764;BME280;4921;43.214;27.936;2022-09-29T11:35:52;100169.63;;;22.93;100.00
9764;BME280;4921;43.214;27.936;2022-09-29T11:38:38;100170.88;;;22.91;100.00
9764;BME280;4921;43.214;27.936;2022-09-29T11:41:19;100183.31;;;22.85;100.00
9764;BME280;4921;43.214;27.936;2022-09-29T11:43:53;100182.19;;;22.99;100.00
9764;BME280;4921;43.214;27.936;2022-09-29T11:46:36;100168.59;;;23.01;100.00
9764;BME280;4921;43.214;27.936;2022-09-29T11:49:36;100173.75;;;22.96;100.00
9764;BME280;4921;43.214;27.936;2022-09-29T11:52:21;100190.47;;;22.98;100.00
9764;BME280;4921;43.214;27.936;2022-09-29T11:55:04;100193.34;;;23.03;100.00
9764;BME280;4921;43.214;27.936;2022-09-29T11:57:45;100178.72;;;22.99;100.00
9764;BME280;4921;43.214;27.936;2022-09-29T12:00:17;100172.97;;;22.89;100.00
9764;BME280;4921;43.214;27.936;2022-09-29T12:03:10;100176.09;;;22.79;100.00
9764;BME280;4921;43.214;27.936;2022-09-29T12:05:49;100176.25;;;22.91;100.00
9764;BME280;4921;43.214;27.936;2022-09-29T12:08:31;100181.41;;;22.99;100.00
9764;BME280;4921;43.214;27.936;2022-09-29T12:11:04;100191.28;;;23.05;100.00
9764;BME280;4921;43.214;27.936;2022-09-29T14:47:43;100158.91;;;22.93;100.00
9764;BME280;4921;43.214;27.936;2022-09-29T14:50:39;100157.91;;;22.94;100.00
9764;BME280;4921;43.214;27.936;2022-09-29T14:53:43;100168.19;;;22.91;100.00
9764;BME280;4921;43.214;27.936;2022-09-29T14:56:22;100166.97;;;22.93;100.00
9764;BME280;4921;43.214;27.936;2022-09-29T14:59:01;100168.44;;;22.89;100.00
9764;BME280;4921;43.214;27.936;2022-09-29T15:01:32;100168.44;;;22.83;100.00
9764;BME280;4921;43.214;27.936;2022-09-29T15:04:08;100169.50;;;22.82;100.00
9764;BME280;4921;43.214;27.936;2022-09-29T15:06:44;100173.78;;;22.89;100.00
9764;BME280;4921;43.214;27.936;2022-09-29T15:09:15;100172.78;;;22.90;100.00
9764;BME280;4921;43.214;27.936;2022-09-29T15:11:43;100165.53;;;22.91;100.00
9764;BME280;4921;43.214;27.936;2022-09-29T15:14:22;100170.69;;;22.92;100.00
9764;BME280;4921;43.214;27.936;2022-09-29T15:17:05;100169.22;;;22.96;100.00
9764;BME280;4921;43.214;27.936;2022-09-29T15:19:45;100173.16;;;22.94;100.00
9764;BME280;4921;43.214;27.936;2022-09-29T15:22:37;100176.84;;;22.99;100.00
9764;BME280;4921;43.214;27.936;2022-09-29T15:25:25;100162.84;;;22.91;100.00
9764;BME280;4921;43.214;27.936;2022-09-29T15:27:58;100166.56;;;22.90;100.00
9764;BME280;4921;43.214;27.936;2022-09-29T15:30:26;100166.38;;;22.85;100.00
9764;BME280;4921;43.214;27.936;2022-09-29T15:33:06;100167.59;;;22.89;100.00
9764;BME280;4921;43.214;27.936;2022-09-29T15:35:41;100171.53;;;22.86;100.00
9764;BME280;4921;43.214;27.936;2022-09-29T15:38:26;100167.44;;;22.84;100.00
9764;BME280;4921;43.214;27.936;2022-09-29T15:40:58;100167.84;;;22.81;100.00
9764;BME280;4921;43.214;27.936;2022-09-29T15:43:28;100168.47;;;22.76;100.00
9764;BME280;4921;43.214;27.936;2022-09-29T15:45:59;100168.88;;;22.80;100.00
9764;BME280;4921;43.214;27.936;2022-09-29T15:48:28;100162.28;;;22.75;100.00
9764;BME280;4921;43.214;27.936;2022-09-29T15:50:57;100166.84;;;22.75;100.00
9764;BME280;4921;43.214;27.936;2022-09-29T15:53:26;100163.13;;;22.69;100.00
9764;BME280;4921;43.214;27.936;2022-09-29T15:55:55;100163.56;;;22.66;100.00
9764;BME280;4921;43.214;27.936;2022-09-29T15:58:41;100166.66;;;22.57;100.00
9764;BME280;4921;43.214;27.936;2022-09-29T16:01:11;100175.09;;;22.67;100.00